sensor_id;sensor_type;location;lat;lon;timestamp;temperature;humidity
22838;DHT22;11585;51.450;-0.240;2023-02-08T00:01:17;4.60;99.90
22838;DHT22;11585;51.450;-0.240;2023-02-08T00:03:49;5.30;99.90
22838;DHT22;11585;51.450;-0.240;2023-02-08T00:06:16;5.30;99.90
22838;DHT22;11585;51.450;-0.240;2023-02-08T00:08:52;5.30;99.90
22838;DHT22;11585;51.450;-0.240;2023-02-08T00:11:18;5.30;99.90
22838;DHT22;11585;51.450;-0.240;2023-02-08T00:13:44;5.20;99.90
22838;DHT22;11585;51.450;-0.240;2023-02-08T00:16:12;5.20;99.90
22838;DHT22;11585;51.450;-0.240;2023-02-08T00:18:44;5.20;99.90
22838;DHT22;11585;51.450;-0.240;2023-02-08T00:21:12;5.20;99.90
22838;DHT22;11585;51.450;-0.240;2023-02-08T00:23:39;5.10;99.90
22838;DHT22;11585;51.450;-0.240;2023-02-08T00:26:28;5.10;99.90
22838;DHT22;11585;51.450;-0.240;2023-02-08T00:28:56;5.10;99.90
22838;DHT22;11585;51.450;-0.240;2023-02-08T00:31:30;4.90;99.90
22838;DHT22;11585;51.450;-0.240;2023-02-08T00:34:07;5.10;99.90
22838;DHT22;11585;51.450;-0.240;2023-02-08T00:36:47;6.10;99.90
22838;DHT22;11585;51.450;-0.240;2023-02-08T00:39:13;5.00;99.90
22838;DHT22;11585;51.450;-0.240;2023-02-08T00:41:38;5.00;99.90
22838;DHT22;11585;51.450;-0.240;2023-02-08T00:44:09;5.10;99.90
22838;DHT22;11585;51.450;-0.240;2023-02-08T00:46:35;5.00;99.90
22838;DHT22;11585;51.450;-0.240;2023-02-08T00:49:04;5.80;99.90
22838;DHT22;11585;51.450;-0.240;2023-02-08T00:51:30;4.90;99.90
22838;DHT22;11585;51.450;-0.240;2023-02-08T00:54:03;5.40;99.90
22838;DHT22;11585;51.450;-0.240;2023-02-08T00:56:29;4.90;99.90
22838;DHT22;11585;51.450;-0.240;2023-02-08T00:59:00;6.20;99.90
22838;DHT22;11585;51.450;-0.240;2023-02-08T01:01:28;4.80;99.90
22838;DHT22;11585;51.450;-0.240;2023-02-08T01:03:55;5.10;99.90
22838;DHT22;11585;51.450;-0.240;2023-02-08T01:06:21;6.00;99.90
22838;DHT22;11585;51.450;-0.240;2023-02-08T01:08:50;5.50;99.90
22838;DHT22;11585;51.450;-0.240;2023-02-08T01:11:19;5.70;99.90
22838;DHT22;11585;51.450;-0.240;2023-02-08T01:17:31;4.80;99.90
22838;DHT22;11585;51.450;-0.240;2023-02-08T01:20:02;4.80;99.90
22838;DHT22;11585;51.450;-0.240;2023-02-08T01:22:49;4.70;99.90
22838;DHT22;11585;51.450;-0.240;2023-02-08T01:25:15;4.70;99.90
22838;DHT22;11585;51.450;-0.240;2023-02-08T01:27:41;4.70;99.90
22838;DHT22;11585;51.450;-0.240;2023-02-08T01:30:07;4.70;99.90
22838;DHT22;11585;51.450;-0.240;2023-02-08T01:32:35;4.70;99.90
22838;DHT22;11585;51.450;-0.240;2023-02-08T01:35:00;4.60;99.90
22838;DHT22;11585;51.450;-0.240;2023-02-08T01:37:26;4.60;99.90
22838;DHT22;11585;51.450;-0.240;2023-02-08T01:39:52;4.60;99.90
22838;DHT22;11585;51.450;-0.240;2023-02-08T01:45:27;4.60;99.90
22838;DHT22;11585;51.450;-0.240;2023-02-08T01:48:19;4.60;99.90
22838;DHT22;11585;51.450;-0.240;2023-02-08T01:50:59;4.60;99.90
22838;DHT22;11585;51.450;-0.240;2023-02-08T01:56:34;4.50;99.90
22838;DHT22;11585;51.450;-0.240;2023-02-08T01:59:02;4.50;99.90
22838;DHT22;11585;51.450;-0.240;2023-02-08T02:01:29;4.50;99.90
22838;DHT22;11585;51.450;-0.240;2023-02-08T02:07:19;4.50;99.90
22838;DHT22;11585;51.450;-0.240;2023-02-08T02:09:56;4.40;99.90
22838;DHT22;11585;51.450;-0.240;2023-02-08T02:15:46;4.40;99.90
22838;DHT22;11585;51.450;-0.240;2023-02-08T02:33:58;4.30;99.90
22838;DHT22;11585;51.450;-0.240;2023-02-08T02:36:32;4.30;99.90
22838;DHT22;11585;51.450;-0.240;2023-02-08T02:41:44;4.30;99.90
22838;DHT22;11585;51.450;-0.240;2023-02-08T02:44:50;4.30;99.90
22838;DHT22;11585;51.450;-0.240;2023-02-08T02:53:52;4.20;99.90
22838;DHT22;11585;51.450;-0.240;2023-02-08T02:56:44;4.20;99.90
22838;DHT22;11585;51.450;-0.240;2023-02-08T02:58:51;4.20;99.90
22838;DHT22;11585;51.450;-0.240;2023-02-08T03:01:22;4.20;99.90
22838;DHT22;11585;51.450;-0.240;2023-02-08T03:03:53;4.20;99.90
22838;DHT22;11585;51.450;-0.240;2023-02-08T03:06:32;4.10;99.90
22838;DHT22;11585;51.450;-0.240;2023-02-08T03:09:24;4.10;99.90
22838;DHT22;11585;51.450;-0.240;2023-02-08T03:14:43;4.10;99.90
22838;DHT22;11585;51.450;-0.240;2023-02-08T03:20:09;4.10;99.90
22838;DHT22;11585;51.450;-0.240;2023-02-08T03:22:46;4.10;99.90
22838;DHT22;11585;51.450;-0.240;2023-02-08T03:25:29;4.00;99.90
22838;DHT22;11585;51.450;-0.240;2023-02-08T03:28:18;4.10;99.90
22838;DHT22;11585;51.450;-0.240;2023-02-08T03:33:22;3.90;99.90
22838;DHT22;11585;51.450;-0.240;2023-02-08T03:35:53;4.00;99.90
22838;DHT22;11585;51.450;-0.240;2023-02-08T03:38:32;4.00;99.90
22838;DHT22;11585;51.450;-0.240;2023-02-08T03:41:02;4.10;99.90
22838;DHT22;11585;51.450;-0.240;2023-02-08T03:46:55;4.00;99.90
22838;DHT22;11585;51.450;-0.240;2023-02-08T03:49:26;3.90;99.90
22838;DHT22;11585;51.450;-0.240;2023-02-08T03:51:57;3.90;99.90
22838;DHT22;11585;51.450;-0.240;2023-02-08T03:54:25;4.00;99.90
22838;DHT22;11585;51.450;-0.240;2023-02-08T03:57:18;3.90;99.90
22838;DHT22;11585;51.450;-0.240;2023-02-08T03:59:51;3.90;99.90
22838;DHT22;11585;51.450;-0.240;2023-02-08T04:02:42;3.90;99.90
22838;DHT22;11585;51.450;-0.240;2023-02-08T04:05:11;3.80;99.90
22838;DHT22;11585;51.450;-0.240;2023-02-08T04:07:37;3.90;99.90
22838;DHT22;11585;51.450;-0.240;2023-02-08T04:10:04;3.80;99.90
22838;DHT22;11585;51.450;-0.240;2023-02-08T04:12:32;3.80;99.90
22838;DHT22;11585;51.450;-0.240;2023-02-08T04:14:57;3.80;99.90
22838;DHT22;11585;51.450;-0.240;2023-02-08T04:17:23;3.80;99.90
22838;DHT22;11585;51.450;-0.240;2023-02-08T04:19:48;3.80;99.90
22838;DHT22;11585;51.450;-0.240;2023-02-08T04:22:14;3.90;99.90
22838;DHT22;11585;51.450;-0.240;2023-02-08T04:24:40;3.80;99.90
22838;DHT22;11585;51.450;-0.240;2023-02-08T04:27:06;3.80;99.90
22838;DHT22;11585;51.450;-0.240;2023-02-08T04:29:31;3.80;99.90
22838;DHT22;11585;51.450;-0.240;2023-02-08T04:32:00;3.70;99.90
22838;DHT22;11585;51.450;-0.240;2023-02-08T04:34:25;3.90;99.90
22838;DHT22;11585;51.450;-0.240;2023-02-08T04:36:51;3.80;99.90
22838;DHT22;11585;51.450;-0.240;2023-02-08T04:39:17;3.70;99.90
22838;DHT22;11585;51.450;-0.240;2023-02-08T04:41:43;3.70;99.90
22838;DHT22;11585;51.450;-0.240;2023-02-08T04:44:11;3.70;99.90
22838;DHT22;11585;51.450;-0.240;2023-02-08T04:46:39;3.70;99.90
22838;DHT22;11585;51.450;-0.240;2023-02-08T04:49:05;3.70;99.90
22838;DHT22;11585;51.450;-0.240;2023-02-08T04:51:31;3.70;99.90
22838;DHT22;11585;51.450;-0.240;2023-02-08T04:53:57;3.60;99.90
22838;DHT22;11585;51.450;-0.240;2023-02-08T04:56:23;3.70;99.90
22838;DHT22;11585;51.450;-0.240;2023-02-08T04:58:49;3.70;99.90
22838;DHT22;11585;51.450;-0.240;2023-02-08T05:01:17;4.80;99.90
22838;DHT22;11585;51.450;-0.240;2023-02-08T05:03:44;3.90;99.90
22838;DHT22;11585;51.450;-0.240;2023-02-08T05:06:13;4.60;99.90
22838;DHT22;11585;51.450;-0.240;2023-02-08T05:08:39;4.80;99.90
22838;DHT22;11585;51.450;-0.240;2023-02-08T05:11:05;3.70;99.90
22838;DHT22;11585;51.450;-0.240;2023-02-08T05:13:50;4.40;99.90
22838;DHT22;11585;51.450;-0.240;2023-02-08T05:16:16;3.60;99.90
22838;DHT22;11585;51.450;-0.240;2023-02-08T05:18:42;3.60;99.90
22838;DHT22;11585;51.450;-0.240;2023-02-08T05:21:09;4.50;99.90
22838;DHT22;11585;51.450;-0.240;2023-02-08T05:23:54;4.70;99.90
22838;DHT22;11585;51.450;-0.240;2023-02-08T05:26:20;3.50;99.90
22838;DHT22;11585;51.450;-0.240;2023-02-08T05:28:45;3.50;99.90
22838;DHT22;11585;51.450;-0.240;2023-02-08T05:31:16;3.80;99.90
22838;DHT22;11585;51.450;-0.240;2023-02-08T05:33:43;3.70;99.90
22838;DHT22;11585;51.450;-0.240;2023-02-08T05:36:09;3.50;99.90
22838;DHT22;11585;51.450;-0.240;2023-02-08T05:38:35;3.50;99.90
22838;DHT22;11585;51.450;-0.240;2023-02-08T05:41:00;3.50;99.90
22838;DHT22;11585;51.450;-0.240;2023-02-08T05:43:27;4.70;99.90
22838;DHT22;11585;51.450;-0.240;2023-02-08T05:45:53;3.50;99.90
22838;DHT22;11585;51.450;-0.240;2023-02-08T05:48:19;4.50;99.90
22838;DHT22;11585;51.450;-0.240;2023-02-08T05:50:44;4.50;99.90
22838;DHT22;11585;51.450;-0.240;2023-02-08T05:53:12;4.50;99.90
22838;DHT22;11585;51.450;-0.240;2023-02-08T05:55:38;3.60;99.90
22838;DHT22;11585;51.450;-0.240;2023-02-08T05:58:14;4.10;99.90
22838;DHT22;11585;51.450;-0.240;2023-02-08T06:00:40;3.60;99.90
22838;DHT22;11585;51.450;-0.240;2023-02-08T06:03:25;4.30;99.90
22838;DHT22;11585;51.450;-0.240;2023-02-08T06:05:51;3.40;99.90
22838;DHT22;11585;51.450;-0.240;2023-02-08T06:08:17;3.40;99.90
22838;DHT22;11585;51.450;-0.240;2023-02-08T06:10:42;3.40;99.90
22838;DHT22;11585;51.450;-0.240;2023-02-08T06:16:14;3.30;99.90
22838;DHT22;11585;51.450;-0.240;2023-02-08T06:18:40;3.30;99.90
22838;DHT22;11585;51.450;-0.240;2023-02-08T06:21:06;3.30;99.90
22838;DHT22;11585;51.450;-0.240;2023-02-08T06:23:33;3.60;99.90
22838;DHT22;11585;51.450;-0.240;2023-02-08T06:25:59;3.30;99.90
22838;DHT22;11585;51.450;-0.240;2023-02-08T06:28:24;3.30;99.90
22838;DHT22;11585;51.450;-0.240;2023-02-08T06:30:51;3.30;99.90
22838;DHT22;11585;51.450;-0.240;2023-02-08T06:36:38;3.30;99.90
22838;DHT22;11585;51.450;-0.240;2023-02-08T06:42:27;3.30;99.90
22838;DHT22;11585;51.450;-0.240;2023-02-08T06:44:53;3.20;99.90
22838;DHT22;11585;51.450;-0.240;2023-02-08T06:47:21;3.30;99.90
22838;DHT22;11585;51.450;-0.240;2023-02-08T06:49:47;3.20;99.90
22838;DHT22;11585;51.450;-0.240;2023-02-08T06:52:13;3.20;99.90
22838;DHT22;11585;51.450;-0.240;2023-02-08T06:54:38;3.30;99.90
22838;DHT22;11585;51.450;-0.240;2023-02-08T06:57:04;3.20;99.90
22838;DHT22;11585;51.450;-0.240;2023-02-08T06:59:31;3.20;99.90
22838;DHT22;11585;51.450;-0.240;2023-02-08T07:01:59;3.20;99.90
22838;DHT22;11585;51.450;-0.240;2023-02-08T07:04:24;3.20;99.90
22838;DHT22;11585;51.450;-0.240;2023-02-08T07:06:50;3.20;99.90
22838;DHT22;11585;51.450;-0.240;2023-02-08T07:09:16;3.10;99.90
22838;DHT22;11585;51.450;-0.240;2023-02-08T07:11:42;3.10;99.90
22838;DHT22;11585;51.450;-0.240;2023-02-08T07:17:12;3.10;99.90
22838;DHT22;11585;51.450;-0.240;2023-02-08T07:19:38;3.10;99.90
22838;DHT22;11585;51.450;-0.240;2023-02-08T07:22:24;3.10;99.90
22838;DHT22;11585;51.450;-0.240;2023-02-08T07:24:50;3.10;99.90
22838;DHT22;11585;51.450;-0.240;2023-02-08T07:27:15;3.10;99.90
22838;DHT22;11585;51.450;-0.240;2023-02-08T07:29:41;3.10;99.90
22838;DHT22;11585;51.450;-0.240;2023-02-08T07:32:09;3.10;99.90
22838;DHT22;11585;51.450;-0.240;2023-02-08T07:34:36;3.10;99.90
22838;DHT22;11585;51.450;-0.240;2023-02-08T07:37:03;3.10;99.90
22838;DHT22;11585;51.450;-0.240;2023-02-08T07:39:29;3.10;99.90
22838;DHT22;11585;51.450;-0.240;2023-02-08T07:45:17;3.10;99.90
22838;DHT22;11585;51.450;-0.240;2023-02-08T07:47:48;3.00;99.90
22838;DHT22;11585;51.450;-0.240;2023-02-08T07:50:14;3.00;99.90
22838;DHT22;11585;51.450;-0.240;2023-02-08T07:52:43;3.10;99.90
22838;DHT22;11585;51.450;-0.240;2023-02-08T07:55:13;3.00;99.90
22838;DHT22;11585;51.450;-0.240;2023-02-08T07:57:42;3.00;99.90
22838;DHT22;11585;51.450;-0.240;2023-02-08T08:00:09;3.00;99.90
22838;DHT22;11585;51.450;-0.240;2023-02-08T08:02:54;3.00;99.90
22838;DHT22;11585;51.450;-0.240;2023-02-08T08:05:20;3.00;99.90
22838;DHT22;11585;51.450;-0.240;2023-02-08T08:07:46;3.00;99.90
22838;DHT22;11585;51.450;-0.240;2023-02-08T08:10:11;3.00;99.90
22838;DHT22;11585;51.450;-0.240;2023-02-08T08:15:41;3.00;99.90
22838;DHT22;11585;51.450;-0.240;2023-02-08T08:18:07;3.00;99.90
22838;DHT22;11585;51.450;-0.240;2023-02-08T08:20:32;3.00;99.90
22838;DHT22;11585;51.450;-0.240;2023-02-08T08:23:17;3.00;99.90
22838;DHT22;11585;51.450;-0.240;2023-02-08T08:25:46;3.00;99.90
22838;DHT22;11585;51.450;-0.240;2023-02-08T08:28:20;3.00;99.90
22838;DHT22;11585;51.450;-0.240;2023-02-08T08:30:49;3.00;99.90
22838;DHT22;11585;51.450;-0.240;2023-02-08T08:33:15;3.00;99.90
22838;DHT22;11585;51.450;-0.240;2023-02-08T08:35:42;2.60;99.90
22838;DHT22;11585;51.450;-0.240;2023-02-08T08:38:09;4.30;99.90
22838;DHT22;11585;51.450;-0.240;2023-02-08T08:40:34;3.00;99.90
22838;DHT22;11585;51.450;-0.240;2023-02-08T08:43:02;2.50;99.90
22838;DHT22;11585;51.450;-0.240;2023-02-08T08:45:28;3.00;99.90
22838;DHT22;11585;51.450;-0.240;2023-02-08T08:47:56;3.00;99.90
22838;DHT22;11585;51.450;-0.240;2023-02-08T08:50:22;3.00;99.90
22838;DHT22;11585;51.450;-0.240;2023-02-08T08:52:48;3.00;99.90
22838;DHT22;11585;51.450;-0.240;2023-02-08T08:55:16;3.00;99.90
22838;DHT22;11585;51.450;-0.240;2023-02-08T08:57:45;3.00;99.90
22838;DHT22;11585;51.450;-0.240;2023-02-08T09:00:11;3.00;99.90
22838;DHT22;11585;51.450;-0.240;2023-02-08T09:02:41;3.00;99.90
22838;DHT22;11585;51.450;-0.240;2023-02-08T09:05:11;3.00;99.90
22838;DHT22;11585;51.450;-0.240;2023-02-08T09:07:41;2.80;99.90
22838;DHT22;11585;51.450;-0.240;2023-02-08T09:10:11;3.00;99.90
22838;DHT22;11585;51.450;-0.240;2023-02-08T09:12:46;3.00;99.90
22838;DHT22;11585;51.450;-0.240;2023-02-08T09:15:17;3.60;99.90
22838;DHT22;11585;51.450;-0.240;2023-02-08T09:17:46;3.00;99.90
22838;DHT22;11585;51.450;-0.240;2023-02-08T09:20:14;3.00;99.90
22838;DHT22;11585;51.450;-0.240;2023-02-08T09:22:41;3.10;99.90
22838;DHT22;11585;51.450;-0.240;2023-02-08T09:25:07;3.10;99.90
22838;DHT22;11585;51.450;-0.240;2023-02-08T09:27:34;3.10;99.90
22838;DHT22;11585;51.450;-0.240;2023-02-08T09:29:59;3.40;99.90
22838;DHT22;11585;51.450;-0.240;2023-02-08T09:32:26;3.10;99.90
22838;DHT22;11585;51.450;-0.240;2023-02-08T09:34:54;3.10;99.90
22838;DHT22;11585;51.450;-0.240;2023-02-08T09:37:22;3.10;99.90
22838;DHT22;11585;51.450;-0.240;2023-02-08T09:39:47;3.20;99.90
22838;DHT22;11585;51.450;-0.240;2023-02-08T09:42:28;3.20;99.90
22838;DHT22;11585;51.450;-0.240;2023-02-08T09:56:48;3.30;99.90
22838;DHT22;11585;51.450;-0.240;2023-02-08T09:59:22;3.30;99.90
22838;DHT22;11585;51.450;-0.240;2023-02-08T10:01:51;3.30;99.90
22838;DHT22;11585;51.450;-0.240;2023-02-08T10:04:23;4.10;99.90
22838;DHT22;11585;51.450;-0.240;2023-02-08T10:06:50;3.30;99.90
22838;DHT22;11585;51.450;-0.240;2023-02-08T10:09:21;3.60;99.90
22838;DHT22;11585;51.450;-0.240;2023-02-08T10:12:15;3.30;99.90
22838;DHT22;11585;51.450;-0.240;2023-02-08T10:17:50;3.40;99.90
22838;DHT22;11585;51.450;-0.240;2023-02-08T10:23:15;3.50;99.90
22838;DHT22;11585;51.450;-0.240;2023-02-08T10:31:23;3.50;99.90
22838;DHT22;11585;51.450;-0.240;2023-02-08T10:34:00;3.60;99.90
22838;DHT22;11585;51.450;-0.240;2023-02-08T10:36:32;3.60;99.90
22838;DHT22;11585;51.450;-0.240;2023-02-08T10:38:58;3.60;99.90
22838;DHT22;11585;51.450;-0.240;2023-02-08T10:41:32;3.60;99.90
22838;DHT22;11585;51.450;-0.240;2023-02-08T10:44:19;4.80;99.90
22838;DHT22;11585;51.450;-0.240;2023-02-08T10:47:21;3.70;99.90
22838;DHT22;11585;51.450;-0.240;2023-02-08T10:50:00;3.80;99.90
22838;DHT22;11585;51.450;-0.240;2023-02-08T10:52:47;3.80;99.90
22838;DHT22;11585;51.450;-0.240;2023-02-08T10:55:19;3.80;99.90
22838;DHT22;11585;51.450;-0.240;2023-02-08T10:57:50;3.90;99.90
22838;DHT22;11585;51.450;-0.240;2023-02-08T11:00:24;3.90;99.90
22838;DHT22;11585;51.450;-0.240;2023-02-08T11:02:53;3.90;99.90
22838;DHT22;11585;51.450;-0.240;2023-02-08T11:05:33;4.00;99.90
22838;DHT22;11585;51.450;-0.240;2023-02-08T11:08:10;4.00;99.90
22838;DHT22;11585;51.450;-0.240;2023-02-08T11:10:40;4.00;99.90
22838;DHT22;11585;51.450;-0.240;2023-02-08T11:13:18;4.10;99.90
22838;DHT22;11585;51.450;-0.240;2023-02-08T11:15:48;4.10;99.90
22838;DHT22;11585;51.450;-0.240;2023-02-08T11:18:26;4.10;99.90
22838;DHT22;11585;51.450;-0.240;2023-02-08T11:20:56;4.20;99.90
22838;DHT22;11585;51.450;-0.240;2023-02-08T11:23:32;4.20;99.90
22838;DHT22;11585;51.450;-0.240;2023-02-08T11:26:18;4.30;99.90
22838;DHT22;11585;51.450;-0.240;2023-02-08T11:29:13;4.30;99.90
22838;DHT22;11585;51.450;-0.240;2023-02-08T11:34:30;4.40;99.90
22838;DHT22;11585;51.450;-0.240;2023-02-08T11:36:59;4.40;99.90
22838;DHT22;11585;51.450;-0.240;2023-02-08T11:39:31;4.40;99.90
22838;DHT22;11585;51.450;-0.240;2023-02-08T11:45:03;4.50;99.90
22838;DHT22;11585;51.450;-0.240;2023-02-08T11:47:32;4.50;99.90
22838;DHT22;11585;51.450;-0.240;2023-02-08T11:50:00;4.50;99.90
22838;DHT22;11585;51.450;-0.240;2023-02-08T11:52:36;4.60;99.90
22838;DHT22;11585;51.450;-0.240;2023-02-08T11:57:58;4.70;99.90
22838;DHT22;11585;51.450;-0.240;2023-02-08T12:00:27;4.70;99.90
22838;DHT22;11585;51.450;-0.240;2023-02-08T12:03:24;4.80;99.90
22838;DHT22;11585;51.450;-0.240;2023-02-08T12:08:54;4.80;99.90
22838;DHT22;11585;51.450;-0.240;2023-02-08T12:11:42;4.90;99.90
22838;DHT22;11585;51.450;-0.240;2023-02-08T12:22:39;5.10;99.90
22838;DHT22;11585;51.450;-0.240;2023-02-08T12:25:37;5.10;99.90
22838;DHT22;11585;51.450;-0.240;2023-02-08T12:28:15;5.20;99.90
22838;DHT22;11585;51.450;-0.240;2023-02-08T12:30:57;5.50;99.90
22838;DHT22;11585;51.450;-0.240;2023-02-08T12:45:04;5.50;99.90
22838;DHT22;11585;51.450;-0.240;2023-02-08T12:53:32;5.70;99.90
22838;DHT22;11585;51.450;-0.240;2023-02-08T12:56:08;5.70;99.90
22838;DHT22;11585;51.450;-0.240;2023-02-08T12:58:46;5.80;99.90
22838;DHT22;11585;51.450;-0.240;2023-02-08T13:01:28;5.80;99.90
22838;DHT22;11585;51.450;-0.240;2023-02-08T13:04:02;5.90;99.90
22838;DHT22;11585;51.450;-0.240;2023-02-08T13:06:38;6.00;99.90
22838;DHT22;11585;51.450;-0.240;2023-02-08T13:12:33;6.00;99.90
22838;DHT22;11585;51.450;-0.240;2023-02-08T13:15:14;6.10;99.90
22838;DHT22;11585;51.450;-0.240;2023-02-08T13:18:00;6.10;99.90
22838;DHT22;11585;51.450;-0.240;2023-02-08T13:20:40;6.10;99.90
22838;DHT22;11585;51.450;-0.240;2023-02-08T13:25:42;6.20;99.90
22838;DHT22;11585;51.450;-0.240;2023-02-08T13:28:17;6.30;99.90
22838;DHT22;11585;51.450;-0.240;2023-02-08T13:31:07;6.30;99.90
22838;DHT22;11585;51.450;-0.240;2023-02-08T13:33:51;6.40;99.90
22838;DHT22;11585;51.450;-0.240;2023-02-08T13:36:38;6.40;99.90
22838;DHT22;11585;51.450;-0.240;2023-02-08T13:39:22;6.50;99.90
22838;DHT22;11585;51.450;-0.240;2023-02-08T13:41:54;6.50;99.90
22838;DHT22;11585;51.450;-0.240;2023-02-08T13:44:38;6.50;99.90
22838;DHT22;11585;51.450;-0.240;2023-02-08T13:47:05;6.60;99.90
22838;DHT22;11585;51.450;-0.240;2023-02-08T13:49:42;6.60;99.90
22838;DHT22;11585;51.450;-0.240;2023-02-08T14:00:34;6.80;99.90
22838;DHT22;11585;51.450;-0.240;2023-02-08T14:05:51;6.90;99.90
22838;DHT22;11585;51.450;-0.240;2023-02-08T14:11:41;7.00;99.90
22838;DHT22;11585;51.450;-0.240;2023-02-08T14:14:27;7.00;99.90
22838;DHT22;11585;51.450;-0.240;2023-02-08T14:19:33;7.10;99.90
22838;DHT22;11585;51.450;-0.240;2023-02-08T14:22:03;7.60;99.90
22838;DHT22;11585;51.450;-0.240;2023-02-08T14:24:34;7.20;99.90
22838;DHT22;11585;51.450;-0.240;2023-02-08T14:30:18;7.30;99.90
22838;DHT22;11585;51.450;-0.240;2023-02-08T14:33:10;7.30;99.90
22838;DHT22;11585;51.450;-0.240;2023-02-08T14:35:49;7.30;99.90
22838;DHT22;11585;51.450;-0.240;2023-02-08T14:43:38;7.40;99.90
22838;DHT22;11585;51.450;-0.240;2023-02-08T14:49:15;7.40;99.90
22838;DHT22;11585;51.450;-0.240;2023-02-08T14:52:11;7.40;99.90
22838;DHT22;11585;51.450;-0.240;2023-02-08T14:55:02;7.40;99.90
22838;DHT22;11585;51.450;-0.240;2023-02-08T14:57:33;7.50;99.90
22838;DHT22;11585;51.450;-0.240;2023-02-08T15:00:04;7.50;99.90
22838;DHT22;11585;51.450;-0.240;2023-02-08T15:02:32;7.50;99.90
22838;DHT22;11585;51.450;-0.240;2023-02-08T15:04:58;7.60;99.90
22838;DHT22;11585;51.450;-0.240;2023-02-08T15:07:36;7.50;99.90
22838;DHT22;11585;51.450;-0.240;2023-02-08T15:10:08;7.50;99.90
22838;DHT22;11585;51.450;-0.240;2023-02-08T15:15:57;7.60;99.90
22838;DHT22;11585;51.450;-0.240;2023-02-08T15:18:29;7.50;99.90
22838;DHT22;11585;51.450;-0.240;2023-02-08T15:23:26;8.10;99.90
22838;DHT22;11585;51.450;-0.240;2023-02-08T15:26:05;7.60;99.90
22838;DHT22;11585;51.450;-0.240;2023-02-08T15:28:34;7.60;99.90
22838;DHT22;11585;51.450;-0.240;2023-02-08T15:31:07;7.60;99.90
22838;DHT22;11585;51.450;-0.240;2023-02-08T15:33:40;7.60;99.90
22838;DHT22;11585;51.450;-0.240;2023-02-08T15:36:29;7.60;99.90
22838;DHT22;11585;51.450;-0.240;2023-02-08T15:39:08;7.60;99.90
22838;DHT22;11585;51.450;-0.240;2023-02-08T15:41:35;7.60;99.90
22838;DHT22;11585;51.450;-0.240;2023-02-08T15:44:20;7.60;99.90
22838;DHT22;11585;51.450;-0.240;2023-02-08T15:46:47;7.60;99.90
22838;DHT22;11585;51.450;-0.240;2023-02-08T15:49:14;7.60;99.90
22838;DHT22;11585;51.450;-0.240;2023-02-08T15:51:42;7.60;99.90
22838;DHT22;11585;51.450;-0.240;2023-02-08T15:54:15;7.60;99.90
22838;DHT22;11585;51.450;-0.240;2023-02-08T15:56:56;7.70;99.90
22838;DHT22;11585;51.450;-0.240;2023-02-08T15:59:27;7.70;99.90
22838;DHT22;11585;51.450;-0.240;2023-02-08T16:01:55;7.60;99.90
22838;DHT22;11585;51.450;-0.240;2023-02-08T16:04:23;7.60;99.90
22838;DHT22;11585;51.450;-0.240;2023-02-08T16:06:56;7.60;99.90
22838;DHT22;11585;51.450;-0.240;2023-02-08T16:09:26;8.30;99.90
22838;DHT22;11585;51.450;-0.240;2023-02-08T16:11:56;8.50;99.90
22838;DHT22;11585;51.450;-0.240;2023-02-08T16:14:24;7.60;99.90
22838;DHT22;11585;51.450;-0.240;2023-02-08T16:16:55;7.60;99.90
22838;DHT22;11585;51.450;-0.240;2023-02-08T16:19:25;6.70;99.90
22838;DHT22;11585;51.450;-0.240;2023-02-08T16:21:54;7.60;99.90
22838;DHT22;11585;51.450;-0.240;2023-02-08T16:24:23;8.10;99.90
22838;DHT22;11585;51.450;-0.240;2023-02-08T16:29:26;6.70;99.90
22838;DHT22;11585;51.450;-0.240;2023-02-08T16:32:28;7.60;99.90
22838;DHT22;11585;51.450;-0.240;2023-02-08T16:34:55;7.60;99.90
22838;DHT22;11585;51.450;-0.240;2023-02-08T16:37:33;7.70;99.90
22838;DHT22;11585;51.450;-0.240;2023-02-08T16:40:02;7.60;99.90
22838;DHT22;11585;51.450;-0.240;2023-02-08T16:42:32;8.20;99.90
22838;DHT22;11585;51.450;-0.240;2023-02-08T16:47:41;7.60;99.90
22838;DHT22;11585;51.450;-0.240;2023-02-08T16:50:13;7.60;99.90
22838;DHT22;11585;51.450;-0.240;2023-02-08T16:52:41;7.60;99.90
22838;DHT22;11585;51.450;-0.240;2023-02-08T16:55:15;7.90;99.90
22838;DHT22;11585;51.450;-0.240;2023-02-08T16:57:44;7.60;99.90
22838;DHT22;11585;51.450;-0.240;2023-02-08T17:00:28;7.60;99.90
22838;DHT22;11585;51.450;-0.240;2023-02-08T17:02:55;7.60;99.90
22838;DHT22;11585;51.450;-0.240;2023-02-08T17:05:25;7.50;99.90
22838;DHT22;11585;51.450;-0.240;2023-02-08T17:07:52;7.50;99.90
22838;DHT22;11585;51.450;-0.240;2023-02-08T17:10:29;7.50;99.90
22838;DHT22;11585;51.450;-0.240;2023-02-08T17:12:56;7.50;99.90
22838;DHT22;11585;51.450;-0.240;2023-02-08T17:15:22;7.80;99.90
22838;DHT22;11585;51.450;-0.240;2023-02-08T17:17:52;7.70;99.90
22838;DHT22;11585;51.450;-0.240;2023-02-08T17:20:30;7.50;99.90
22838;DHT22;11585;51.450;-0.240;2023-02-08T17:23:01;7.50;99.90
22838;DHT22;11585;51.450;-0.240;2023-02-08T17:25:28;7.90;99.90
22838;DHT22;11585;51.450;-0.240;2023-02-08T17:28:00;8.30;99.90
22838;DHT22;11585;51.450;-0.240;2023-02-08T17:30:33;7.90;99.90
22838;DHT22;11585;51.450;-0.240;2023-02-08T17:32:59;7.40;99.90
22838;DHT22;11585;51.450;-0.240;2023-02-08T17:35:26;8.30;99.90
22838;DHT22;11585;51.450;-0.240;2023-02-08T17:37:56;8.30;99.90
22838;DHT22;11585;51.450;-0.240;2023-02-08T17:40:25;7.40;99.90
22838;DHT22;11585;51.450;-0.240;2023-02-08T17:42:52;7.40;99.90
22838;DHT22;11585;51.450;-0.240;2023-02-08T17:45:18;7.30;99.90
22838;DHT22;11585;51.450;-0.240;2023-02-08T17:47:43;7.30;99.90
22838;DHT22;11585;51.450;-0.240;2023-02-08T17:50:12;7.30;99.90
22838;DHT22;11585;51.450;-0.240;2023-02-08T17:52:40;7.50;99.90
22838;DHT22;11585;51.450;-0.240;2023-02-08T17:55:08;7.30;99.90
22838;DHT22;11585;51.450;-0.240;2023-02-08T17:57:35;7.30;99.90
22838;DHT22;11585;51.450;-0.240;2023-02-08T18:00:07;7.20;99.90
22838;DHT22;11585;51.450;-0.240;2023-02-08T18:02:42;7.20;99.90
22838;DHT22;11585;51.450;-0.240;2023-02-08T18:05:08;7.30;99.90
22838;DHT22;11585;51.450;-0.240;2023-02-08T18:07:36;7.30;99.90
22838;DHT22;11585;51.450;-0.240;2023-02-08T18:10:03;7.20;99.90
22838;DHT22;11585;51.450;-0.240;2023-02-08T18:15:50;7.20;99.90
22838;DHT22;11585;51.450;-0.240;2023-02-08T18:18:16;7.20;99.90
22838;DHT22;11585;51.450;-0.240;2023-02-08T18:20:44;7.10;99.90
22838;DHT22;11585;51.450;-0.240;2023-02-08T18:23:10;7.00;99.90
22838;DHT22;11585;51.450;-0.240;2023-02-08T18:25:35;7.10;99.90
22838;DHT22;11585;51.450;-0.240;2023-02-08T18:28:03;7.10;99.90
22838;DHT22;11585;51.450;-0.240;2023-02-08T18:30:29;7.10;99.90
22838;DHT22;11585;51.450;-0.240;2023-02-08T18:32:55;7.00;99.90
22838;DHT22;11585;51.450;-0.240;2023-02-08T18:35:21;7.00;99.90
22838;DHT22;11585;51.450;-0.240;2023-02-08T18:37:47;7.80;99.90
22838;DHT22;11585;51.450;-0.240;2023-02-08T18:40:15;7.30;99.90
22838;DHT22;11585;51.450;-0.240;2023-02-08T18:42:42;7.70;99.90
22838;DHT22;11585;51.450;-0.240;2023-02-08T18:45:08;8.30;99.90
22838;DHT22;11585;51.450;-0.240;2023-02-08T18:47:35;6.90;99.90
22838;DHT22;11585;51.450;-0.240;2023-02-08T18:50:01;6.90;99.90
22838;DHT22;11585;51.450;-0.240;2023-02-08T18:52:29;6.90;99.90
22838;DHT22;11585;51.450;-0.240;2023-02-08T18:54:54;6.90;99.90
22838;DHT22;11585;51.450;-0.240;2023-02-08T18:57:20;6.90;99.90